Time;durP1;ratioP1;P1;durP2;ratioP2;P2;SDS_P1;SDS_P2;PMS_P1;PMS_P2;Temp;Humidity;BMP_temperature;BMP_pressure;BME280_temperature;BME280_humidity;BME280_pressure;Samples;Min_cycle;Max_cycle;Signal;HPM_P1;HPM_P2
2023/11/04 00:00:45;;;;;;;1.02;0.30;;;6.50;99.90;;;;;;5014745;28;20175;-68
2023/11/04 00:03:10;;;;;;;0.20;0.10;;;6.50;99.90;;;;;;5018595;28;20124;-67
2023/11/04 00:05:37;;;;;;;0.80;0.22;;;6.50;99.90;;;;;;5020126;28;20555;-68
2023/11/04 00:08:04;;;;;;;0.95;0.45;;;6.40;99.90;;;;;;5013154;28;20323;-68
2023/11/04 00:10:30;;;;;;;0.32;0.10;;;6.50;99.90;;;;;;5014724;28;20494;-68
2023/11/04 00:12:57;;;;;;;0.10;0.10;;;6.50;99.90;;;;;;5004208;28;20064;-67
2023/11/04 00:15:25;;;;;;;0.43;0.20;;;6.50;99.90;;;;;;4993685;28;20169;-68
2023/11/04 00:17:51;;;;;;;0.85;0.10;;;6.40;99.90;;;;;;4998485;28;20383;-68
2023/11/04 00:20:17;;;;;;;0.52;0.45;;;6.40;99.90;;;;;;5019918;28;20036;-68
2023/11/04 00:22:42;;;;;;;0.52;0.28;;;6.40;99.90;;;;;;4998355;28;20048;-68
2023/11/04 00:25:09;;;;;;;0.40;0.20;;;6.40;99.90;;;;;;5015597;28;20064;-68
2023/11/04 00:27:34;;;;;;;2.42;0.15;;;6.40;99.90;;;;;;5014525;28;20025;-68
2023/11/04 00:30:00;;;;;;;0.32;0.15;;;6.40;99.90;;;;;;5017497;28;20496;-68
2023/11/04 00:32:26;;;;;;;0.00;0.00;;;6.40;99.90;;;;;;4999333;28;20048;-68
2023/11/04 00:34:51;;;;;;;0.25;0.10;;;6.40;99.90;;;;;;5004381;28;20092;-68
2023/11/04 00:37:17;;;;;;;0.77;0.35;;;6.40;99.90;;;;;;4998870;28;20044;-68
2023/11/04 00:39:43;;;;;;;0.60;0.20;;;6.40;99.90;;;;;;5002054;28;20068;-68
2023/11/04 00:42:08;;;;;;;4.05;0.75;;;6.40;99.90;;;;;;5021831;28;20067;-68
2023/11/04 00:44:34;;;;;;;0.17;0.10;;;6.50;99.90;;;;;;4991796;28;20137;-67
2023/11/04 00:47:01;;;;;;;0.47;0.20;;;6.50;99.90;;;;;;4984794;28;20044;-68
2023/11/04 00:49:26;;;;;;;0.45;0.20;;;6.60;99.90;;;;;;4985230;28;20442;-67
2023/11/04 00:51:52;;;;;;;0.47;0.20;;;6.60;99.90;;;;;;5017383;28;20038;-68
2023/11/04 00:54:17;;;;;;;0.85;0.30;;;6.70;99.90;;;;;;4984704;28;20103;-68
2023/11/04 00:56:43;;;;;;;0.50;0.30;;;6.70;99.90;;;;;;5008451;28;20452;-68
2023/11/04 00:59:09;;;;;;;0.30;0.25;;;6.70;99.90;;;;;;5001514;28;20041;-68
2023/11/04 01:01:35;;;;;;;1.88;0.20;;;6.80;99.90;;;;;;4999953;28;20453;-68
2023/11/04 01:04:00;;;;;;;0.70;0.30;;;6.90;99.90;;;;;;5000192;28;20552;-67
2023/11/04 01:06:26;;;;;;;2.03;0.20;;;6.90;99.90;;;;;;5019394;28;20148;-68
2023/11/04 01:08:52;;;;;;;0.00;0.00;;;7.00;99.90;;;;;;5019783;28;20457;-68
2023/11/04 01:11:18;;;;;;;0.10;0.08;;;7.10;99.90;;;;;;4981602;28;20042;-68
2023/11/04 01:13:44;;;;;;;0.47;0.10;;;7.10;99.90;;;;;;4994314;28;20057;-68
2023/11/04 01:16:10;;;;;;;1.15;0.20;;;7.20;99.90;;;;;;4997825;28;20550;-68
2023/11/04 01:18:35;;;;;;;0.10;0.10;;;7.30;99.90;;;;;;4999710;28;20125;-68
2023/11/04 01:21:01;;;;;;;0.10;0.03;;;7.30;99.90;;;;;;4996997;28;20069;-68
2023/11/04 01:23:27;;;;;;;0.45;0.20;;;7.40;99.90;;;;;;5008556;28;20049;-68
2023/11/04 01:25:53;;;;;;;0.30;0.10;;;7.40;99.90;;;;;;5017203;28;20123;-68
2023/11/04 01:28:18;;;;;;;3.53;0.30;;;7.40;99.90;;;;;;5018403;28;20044;-67
2023/11/04 01:30:44;;;;;;;0.70;0.10;;;7.50;99.90;;;;;;4996468;28;20625;-67
2023/11/04 01:33:10;;;;;;;1.95;0.17;;;7.50;99.90;;;;;;5009089;28;20042;-67
2023/11/04 01:35:35;;;;;;;0.10;0.03;;;7.50;99.90;;;;;;5000632;28;20041;-67
2023/11/04 01:38:01;;;;;;;0.35;0.20;;;7.50;99.90;;;;;;5020125;28;20382;-67
2023/11/04 01:40:27;;;;;;;0.15;0.08;;;7.60;99.90;;;;;;4999289;28;20521;-67
2023/11/04 01:42:53;;;;;;;0.82;0.13;;;7.60;99.90;;;;;;4999822;28;20616;-67
2023/11/04 01:45:18;;;;;;;0.38;0.15;;;7.70;99.90;;;;;;5014996;28;20386;-67
2023/11/04 01:47:45;;;;;;;0.55;0.10;;;7.70;99.90;;;;;;5000809;28;20096;-68
2023/11/04 01:50:10;;;;;;;0.20;0.10;;;7.70;99.90;;;;;;4994315;28;20065;-67
2023/11/04 01:52:38;;;;;;;0.30;0.10;;;7.70;99.90;;;;;;5006053;28;20038;-67
2023/11/04 01:55:07;;;;;;;0.77;0.10;;;7.70;99.90;;;;;;5016863;28;20107;-67
2023/11/04 01:57:33;;;;;;;4.88;0.20;;;7.70;99.90;;;;;;5017303;28;20077;-67
2023/11/04 02:00:00;;;;;;;0.22;0.15;;;7.80;99.90;;;;;;4992672;28;20446;-67
2023/11/04 02:02:28;;;;;;;0.63;0.20;;;7.80;99.90;;;;;;5013569;28;20418;-67
2023/11/04 02:04:55;;;;;;;0.55;0.10;;;7.80;99.90;;;;;;5014659;28;20112;-67
2023/11/04 02:07:25;;;;;;;0.00;0.00;;;7.80;99.90;;;;;;5002577;28;20149;-67
2023/11/04 02:09:51;;;;;;;2.22;0.20;;;7.90;99.90;;;;;;5009603;28;20042;-67
2023/11/04 02:12:18;;;;;;;3.42;0.30;;;7.90;99.90;;;;;;5012105;28;20116;-67
2023/11/04 02:14:53;;;;;;;0.50;0.15;;;7.90;99.90;;;;;;5020986;28;20049;-68
2023/11/04 02:17:19;;;;;;;0.10;0.10;;;7.90;99.90;;;;;;5002948;28;20041;-66
2023/11/04 02:19:45;;;;;;;0.30;0.20;;;7.90;99.90;;;;;;5010156;28;20033;-67
2023/11/04 02:22:11;;;;;;;0.32;0.20;;;7.90;99.90;;;;;;4996891;28;20046;-67
2023/11/04 02:24:37;;;;;;;0.38;0.10;;;7.90;99.90;;;;;;5001097;28;20561;-67
2023/11/04 02:27:03;;;;;;;0.38;0.25;;;8.00;99.90;;;;;;4996326;28;20128;-67
2023/11/04 02:29:29;;;;;;;0.73;0.10;;;8.00;99.90;;;;;;5010403;28;20557;-67
2023/11/04 02:31:54;;;;;;;1.45;0.38;;;8.00;99.90;;;;;;4991044;28;20049;-68
2023/11/04 02:34:20;;;;;;;0.40;0.22;;;8.10;99.90;;;;;;5002091;28;20117;-67
2023/11/04 02:36:46;;;;;;;0.20;0.20;;;8.10;99.90;;;;;;5003434;28;20425;-67
2023/11/04 02:39:11;;;;;;;0.30;0.17;;;8.10;99.90;;;;;;5004565;28;20099;-67
2023/11/04 02:41:37;;;;;;;0.65;0.40;;;8.10;99.90;;;;;;4967639;28;20506;-68
2023/11/04 02:44:04;;;;;;;0.28;0.17;;;8.10;99.90;;;;;;5015440;28;20137;-66
2023/11/04 02:46:37;;;;;;;0.90;0.28;;;8.10;99.90;;;;;;5097579;27;20893;-66
2023/11/04 02:49:03;;;;;;;4.13;0.40;;;8.10;99.90;;;;;;5080035;28;20208;-66
2023/11/04 02:51:29;;;;;;;0.45;0.38;;;8.10;99.90;;;;;;5081526;28;20048;-66
2023/11/04 02:53:54;;;;;;;1.08;0.10;;;8.20;99.90;;;;;;5082932;28;20052;-66
2023/11/04 02:56:20;;;;;;;1.33;0.30;;;8.20;99.90;;;;;;5079044;28;20039;-67
2023/11/04 02:58:46;;;;;;;0.40;0.20;;;8.10;99.90;;;;;;5067576;28;20049;-66
2023/11/04 03:01:12;;;;;;;0.88;0.25;;;8.20;99.90;;;;;;5047145;28;20045;-67
2023/11/04 03:03:37;;;;;;;0.30;0.20;;;8.20;99.90;;;;;;5053379;28;20115;-66
2023/11/04 03:06:03;;;;;;;0.77;0.40;;;8.10;99.90;;;;;;5056195;28;20056;-66
2023/11/04 03:08:29;;;;;;;0.82;0.30;;;8.10;99.90;;;;;;5045890;28;20044;-67
2023/11/04 03:10:55;;;;;;;0.75;0.28;;;8.10;99.90;;;;;;5051228;28;20166;-66
2023/11/04 03:13:20;;;;;;;0.20;0.20;;;8.20;99.90;;;;;;5055431;28;20489;-66
2023/11/04 03:15:46;;;;;;;0.70;0.25;;;8.20;99.90;;;;;;5049271;28;20051;-66
2023/11/04 03:18:13;;;;;;;1.33;0.30;;;8.20;99.90;;;;;;5050296;28;20029;-66
2023/11/04 03:20:39;;;;;;;2.38;0.40;;;8.20;99.90;;;;;;5058914;28;20053;-66
2023/11/04 03:23:05;;;;;;;0.77;0.30;;;8.20;99.90;;;;;;5050186;28;20020;-66
2023/11/04 03:25:30;;;;;;;0.40;0.17;;;8.20;99.90;;;;;;5050840;28;20124;-67
2023/11/04 03:27:56;;;;;;;2.65;0.45;;;8.20;99.90;;;;;;5054483;28;20447;-66
2023/11/04 03:30:22;;;;;;;0.85;0.40;;;8.30;99.90;;;;;;5036282;28;20041;-66
2023/11/04 03:32:48;;;;;;;1.92;0.32;;;8.20;99.90;;;;;;5055042;28;20037;-66
2023/11/04 03:35:13;;;;;;;3.17;0.30;;;8.20;99.90;;;;;;5047204;28;20048;-67
2023/11/04 03:37:39;;;;;;;2.13;0.50;;;8.20;99.90;;;;;;5047050;28;20080;-66
2023/11/04 03:40:06;;;;;;;2.38;0.40;;;8.20;99.90;;;;;;5051459;28;20044;-66
2023/11/04 03:42:36;;;;;;;0.52;0.20;;;8.30;99.90;;;;;;5054071;28;20044;-67
2023/11/04 03:45:03;;;;;;;2.63;0.35;;;8.30;99.90;;;;;;5044799;28;20069;-67
2023/11/04 03:47:29;;;;;;;1.02;0.20;;;8.30;99.90;;;;;;5052227;28;20053;-66
2023/11/04 03:49:55;;;;;;;0.25;0.20;;;8.30;99.90;;;;;;5052358;28;20473;-67
2023/11/04 03:52:20;;;;;;;2.70;0.50;;;8.40;99.90;;;;;;5052565;28;20029;-66
2023/11/04 03:54:46;;;;;;;0.10;0.08;;;8.40;99.90;;;;;;5061294;28;20496;-67
2023/11/04 03:57:12;;;;;;;0.30;0.20;;;8.40;99.90;;;;;;5075715;28;20127;-67
2023/11/04 03:59:38;;;;;;;0.35;0.20;;;8.40;99.90;;;;;;5071679;28;20128;-66
2023/11/04 04:02:04;;;;;;;0.65;0.35;;;8.40;99.90;;;;;;5038635;28;20128;-66
2023/11/04 04:04:29;;;;;;;1.00;0.35;;;8.50;99.90;;;;;;5034630;28;20033;-66
2023/11/04 04:06:55;;;;;;;0.40;0.40;;;8.40;99.90;;;;;;5036246;28;20033;-66
2023/11/04 04:09:21;;;;;;;1.10;0.75;;;8.50;99.90;;;;;;5038562;28;20037;-66
2023/11/04 04:11:46;;;;;;;0.30;0.30;;;8.50;99.90;;;;;;5036514;28;20385;-66
2023/11/04 04:14:12;;;;;;;3.13;0.57;;;8.50;99.90;;;;;;5037625;28;20048;-67
2023/11/04 04:16:37;;;;;;;0.50;0.30;;;8.50;99.90;;;;;;5037226;28;20191;-66
2023/11/04 04:19:04;;;;;;;2.35;0.30;;;8.60;99.90;;;;;;5040223;28;20477;-66
2023/11/04 04:21:30;;;;;;;3.97;0.52;;;8.60;99.90;;;;;;5033204;28;20068;-66
2023/11/04 04:23:57;;;;;;;0.60;0.50;;;8.50;99.90;;;;;;5018780;28;20041;-66
2023/11/04 04:26:23;;;;;;;0.30;0.20;;;8.60;99.90;;;;;;5035605;28;20045;-66
2023/11/04 04:28:49;;;;;;;0.30;0.22;;;8.60;99.90;;;;;;5040249;28;20116;-66
2023/11/04 04:31:14;;;;;;;1.17;0.60;;;8.60;99.90;;;;;;5034869;28;20096;-66
2023/11/04 04:33:41;;;;;;;0.70;0.50;;;8.60;99.90;;;;;;5017288;28;20025;-66
2023/11/04 04:36:07;;;;;;;1.35;0.40;;;8.70;99.90;;;;;;5039749;28;20155;-66
2023/11/04 04:38:33;;;;;;;0.68;0.32;;;8.60;99.90;;;;;;5037290;28;20045;-66
2023/11/04 04:40:59;;;;;;;0.75;0.38;;;8.70;99.90;;;;;;5036306;28;20482;-66
2023/11/04 04:43:25;;;;;;;1.30;0.20;;;8.60;99.90;;;;;;5037831;28;20681;-67
2023/11/04 04:45:51;;;;;;;1.88;0.40;;;8.70;99.90;;;;;;5037387;28;20076;-66
2023/11/04 04:48:16;;;;;;;0.88;0.73;;;8.60;99.90;;;;;;5038795;28;20057;-66
2023/11/04 04:50:42;;;;;;;1.85;0.52;;;8.70;99.90;;;;;;5037665;28;20052;-66
2023/11/04 04:53:08;;;;;;;0.35;0.25;;;8.70;99.90;;;;;;5024477;28;20102;-66
2023/11/04 04:55:33;;;;;;;1.25;0.43;;;8.70;99.90;;;;;;5041353;28;20037;-67
2023/11/04 04:57:59;;;;;;;6.43;0.38;;;8.70;99.90;;;;;;5035844;28;20045;-66
2023/11/04 05:00:25;;;;;;;4.13;0.70;;;8.70;99.90;;;;;;5033178;28;20041;-66
2023/11/04 05:02:50;;;;;;;1.00;0.38;;;8.70;99.90;;;;;;5042221;28;20044;-66
2023/11/04 05:05:16;;;;;;;0.40;0.30;;;8.70;99.90;;;;;;5037531;28;20068;-67
2023/11/04 05:07:42;;;;;;;1.83;0.40;;;8.70;99.90;;;;;;5022532;28;20130;-67
2023/11/04 05:10:09;;;;;;;0.70;0.40;;;8.70;99.90;;;;;;5040598;28;20449;-66
2023/11/04 05:12:36;;;;;;;0.20;0.20;;;8.70;99.90;;;;;;5033342;28;20091;-66
2023/11/04 05:15:02;;;;;;;0.68;0.40;;;8.70;99.90;;;;;;5037993;28;20073;-66
2023/11/04 05:17:28;;;;;;;0.45;0.25;;;8.70;99.90;;;;;;5041231;28;20044;-66
2023/11/04 05:19:55;;;;;;;0.55;0.35;;;8.70;99.90;;;;;;5005203;28;20508;-67
2023/11/04 05:22:23;;;;;;;3.22;0.30;;;8.70;99.90;;;;;;5019667;28;20053;-67
2023/11/04 05:24:49;;;;;;;0.65;0.28;;;8.70;99.90;;;;;;5032446;28;20049;-66
2023/11/04 05:27:15;;;;;;;0.73;0.50;;;8.70;99.90;;;;;;5037566;28;20029;-66
2023/11/04 05:29:41;;;;;;;0.20;0.20;;;8.70;99.90;;;;;;5031264;28;20107;-66
2023/11/04 05:32:07;;;;;;;6.53;0.40;;;8.70;99.90;;;;;;5030395;28;20104;-66
2023/11/04 05:34:33;;;;;;;0.40;0.30;;;8.70;99.90;;;;;;5004888;28;20520;-67
2023/11/04 05:36:59;;;;;;;0.15;0.10;;;8.60;99.90;;;;;;5036370;28;20099;-67
2023/11/04 05:39:25;;;;;;;1.85;0.63;;;8.60;99.90;;;;;;5029381;28;20077;-67
2023/11/04 05:41:52;;;;;;;0.20;0.20;;;8.70;99.90;;;;;;5031724;28;20111;-67
2023/11/04 05:44:17;;;;;;;0.10;0.10;;;8.60;99.90;;;;;;5067876;28;20581;-68
2023/11/04 05:46:47;;;;;;;0.60;0.40;;;8.60;99.90;;;;;;5040087;28;20092;-67
2023/11/04 05:49:13;;;;;;;0.98;0.47;;;8.70;99.90;;;;;;5059822;28;20449;-67
2023/11/04 05:51:39;;;;;;;0.60;0.30;;;8.70;99.90;;;;;;5031655;28;20120;-66
2023/11/04 05:54:04;;;;;;;0.30;0.20;;;8.70;99.90;;;;;;5033953;28;20076;-66
2023/11/04 05:56:30;;;;;;;1.33;0.25;;;8.70;99.90;;;;;;5036184;28;20037;-66
2023/11/04 05:58:56;;;;;;;0.30;0.15;;;8.60;99.90;;;;;;5034134;28;20049;-67
2023/11/04 06:01:24;;;;;;;0.20;0.20;;;8.60;99.90;;;;;;5036555;28;20099;-66
2023/11/04 06:03:51;;;;;;;1.08;0.55;;;8.60;99.90;;;;;;5069328;28;20037;-66
2023/11/04 06:06:19;;;;;;;0.17;0.17;;;8.60;99.90;;;;;;5033525;28;20508;-67
2023/11/04 06:08:45;;;;;;;0.55;0.20;;;8.60;99.90;;;;;;5033463;28;20401;-67
2023/11/04 06:11:10;;;;;;;0.43;0.30;;;8.60;99.90;;;;;;5033374;28;20044;-66
2023/11/04 06:13:36;;;;;;;0.50;0.20;;;8.60;99.90;;;;;;5005608;28;20037;-66
2023/11/04 06:16:02;;;;;;;0.30;0.20;;;8.60;99.90;;;;;;5038028;28;20030;-67
2023/11/04 06:18:28;;;;;;;2.10;0.63;;;8.60;99.90;;;;;;5031104;28;20046;-66
2023/11/04 06:20:56;;;;;;;0.30;0.15;;;8.60;99.90;;;;;;5070586;28;20267;-67
2023/11/04 06:23:21;;;;;;;0.28;0.28;;;8.60;99.90;;;;;;5035797;28;20489;-66
2023/11/04 06:25:47;;;;;;;0.43;0.28;;;8.60;99.90;;;;;;5038656;28;20041;-66
2023/11/04 06:28:13;;;;;;;0.88;0.30;;;8.60;99.90;;;;;;5031293;28;20053;-66
2023/11/04 06:30:38;;;;;;;0.20;0.20;;;8.60;99.90;;;;;;5038500;28;20072;-66
2023/11/04 06:33:04;;;;;;;0.30;0.30;;;8.60;99.90;;;;;;5032559;28;20045;-67
2023/11/04 06:35:31;;;;;;;0.22;0.22;;;8.60;99.90;;;;;;5041249;28;20037;-66
2023/11/04 06:37:57;;;;;;;5.13;0.73;;;8.60;99.90;;;;;;5036794;28;20048;-66
2023/11/04 06:40:22;;;;;;;0.40;0.30;;;8.70;99.90;;;;;;5034997;28;20041;-66
2023/11/04 06:42:48;;;;;;;0.43;0.10;;;8.60;99.90;;;;;;5035032;28;20045;-66
2023/11/04 06:45:14;;;;;;;0.45;0.38;;;8.70;99.90;;;;;;5033327;28;20055;-66
2023/11/04 06:47:40;;;;;;;0.95;0.65;;;8.60;99.90;;;;;;5038250;28;20106;-66
2023/11/04 06:50:06;;;;;;;0.65;0.55;;;8.70;99.90;;;;;;5034794;28;20109;-66
2023/11/04 06:52:32;;;;;;;0.88;0.30;;;8.70;99.90;;;;;;5035256;28;20048;-66
2023/11/04 06:54:58;;;;;;;0.43;0.35;;;8.70;99.90;;;;;;5031525;28;20060;-66
2023/11/04 06:57:24;;;;;;;0.40;0.30;;;8.70;99.90;;;;;;5065196;28;20048;-67
2023/11/04 06:59:49;;;;;;;0.30;0.20;;;8.70;99.90;;;;;;5038731;28;20092;-66
2023/11/04 07:02:15;;;;;;;0.35;0.20;;;8.70;99.90;;;;;;5036225;28;20049;-66
2023/11/04 07:04:41;;;;;;;0.10;0.10;;;8.70;99.90;;;;;;5032305;28;20052;-67
2023/11/04 07:07:06;;;;;;;0.50;0.40;;;8.70;99.90;;;;;;5034059;28;20091;-67
2023/11/04 07:09:34;;;;;;;0.55;0.28;;;8.70;99.90;;;;;;5034362;28;20054;-66
2023/11/04 07:12:00;;;;;;;1.08;0.55;;;8.80;99.90;;;;;;5031918;28;20041;-66
2023/11/04 07:14:25;;;;;;;0.30;0.20;;;8.70;99.90;;;;;;5035157;28;20055;-66
2023/11/04 07:16:51;;;;;;;1.52;0.45;;;8.80;99.90;;;;;;5032730;28;20124;-67
2023/11/04 07:19:17;;;;;;;7.43;0.60;;;8.80;99.90;;;;;;5035083;28;20214;-66
2023/11/04 07:21:45;;;;;;;0.60;0.28;;;8.80;99.90;;;;;;5036424;28;20486;-66
2023/11/04 07:24:10;;;;;;;1.55;0.47;;;8.80;99.90;;;;;;5033221;28;20041;-67
2023/11/04 07:26:36;;;;;;;0.30;0.20;;;8.80;99.90;;;;;;5049039;28;20075;-66
2023/11/04 07:29:02;;;;;;;0.88;0.38;;;8.80;99.90;;;;;;5035018;28;20050;-66
2023/11/04 07:31:31;;;;;;;0.35;0.30;;;8.80;99.90;;;;;;5033508;28;20124;-66
2023/11/04 07:33:57;;;;;;;1.20;0.40;;;8.80;99.90;;;;;;5041745;28;20034;-67
2023/11/04 07:36:25;;;;;;;0.20;0.20;;;8.80;99.90;;;;;;5037680;28;20115;-67
2023/11/04 07:38:52;;;;;;;0.38;0.30;;;8.90;99.90;;;;;;5043995;28;20030;-66
2023/11/04 07:41:18;;;;;;;0.40;0.40;;;9.00;99.90;;;;;;5036549;28;20038;-67
2023/11/04 07:43:44;;;;;;;0.25;0.25;;;9.10;99.90;;;;;;5074080;28;20049;-66
2023/11/04 07:46:10;;;;;;;0.73;0.50;;;9.30;99.90;;;;;;5035417;28;20468;-67
2023/11/04 07:48:35;;;;;;;0.20;0.20;;;9.80;99.90;;;;;;5039645;28;20044;-67
2023/11/04 07:51:01;;;;;;;0.85;0.50;;;9.80;99.90;;;;;;5037650;28;20065;-66
2023/11/04 07:53:27;;;;;;;0.55;0.38;;;9.80;99.90;;;;;;5042019;28;20037;-67
2023/11/04 07:55:55;;;;;;;2.00;0.40;;;9.60;99.90;;;;;;5039013;28;20091;-67
2023/11/04 07:58:21;;;;;;;0.47;0.25;;;9.60;99.90;;;;;;5022549;28;20401;-67
2023/11/04 08:00:47;;;;;;;0.73;0.63;;;9.50;99.90;;;;;;5037096;28;20060;-67
2023/11/04 08:03:13;;;;;;;0.25;0.20;;;9.50;99.90;;;;;;5032571;28;20037;-66
2023/11/04 08:05:40;;;;;;;1.05;0.40;;;9.40;99.90;;;;;;5041783;28;20586;-66
2023/11/04 08:08:07;;;;;;;0.30;0.20;;;9.40;99.90;;;;;;5067572;28;20056;-66
2023/11/04 08:10:33;;;;;;;1.17;0.55;;;9.30;99.90;;;;;;5035947;28;20079;-66
2023/11/04 08:12:59;;;;;;;0.30;0.25;;;9.30;99.90;;;;;;5061801;28;20041;-67
2023/11/04 08:15:24;;;;;;;0.13;0.13;;;9.30;99.90;;;;;;5037339;28;20049;-67
2023/11/04 08:17:50;;;;;;;0.88;0.40;;;9.30;99.90;;;;;;5034107;28;20041;-66
2023/11/04 08:20:16;;;;;;;2.53;0.35;;;9.30;99.90;;;;;;5032272;28;20753;-66
2023/11/04 08:22:45;;;;;;;0.73;0.30;;;9.30;99.90;;;;;;5035060;28;20037;-66
2023/11/04 08:25:14;;;;;;;0.73;0.32;;;9.30;99.90;;;;;;5039317;28;20401;-66
2023/11/04 08:27:40;;;;;;;0.80;0.45;;;9.30;99.90;;;;;;5035909;28;20038;-66
2023/11/04 08:30:07;;;;;;;0.57;0.47;;;9.30;99.90;;;;;;5039307;28;20460;-66
2023/11/04 08:32:33;;;;;;;0.90;0.13;;;9.30;99.90;;;;;;5032144;28;20048;-66
2023/11/04 08:34:59;;;;;;;0.70;0.28;;;9.30;99.90;;;;;;5038661;28;20041;-68
2023/11/04 08:37:26;;;;;;;1.70;0.40;;;9.30;99.90;;;;;;5036858;28;20159;-66
2023/11/04 08:39:52;;;;;;;0.63;0.30;;;9.30;99.90;;;;;;5034529;28;20446;-66
2023/11/04 08:42:18;;;;;;;0.77;0.43;;;9.30;99.90;;;;;;5035907;28;20025;-66
2023/11/04 08:44:44;;;;;;;3.60;0.52;;;9.40;99.90;;;;;;5037584;28;20566;-66
2023/11/04 08:47:10;;;;;;;0.70;0.40;;;9.40;99.90;;;;;;5038408;28;20037;-67
2023/11/04 08:49:36;;;;;;;2.75;0.98;;;9.40;99.90;;;;;;5031871;28;20056;-66
2023/11/04 08:52:02;;;;;;;0.50;0.20;;;9.40;99.90;;;;;;5071611;28;20119;-67
2023/11/04 08:54:28;;;;;;;0.73;0.35;;;9.30;99.90;;;;;;5040276;28;20029;-66
2023/11/04 08:56:54;;;;;;;0.40;0.30;;;9.40;99.90;;;;;;5040017;28;20059;-67
2023/11/04 08:59:19;;;;;;;1.83;0.50;;;9.30;99.90;;;;;;5037487;28;20048;-66
2023/11/04 09:01:47;;;;;;;1.15;0.50;;;9.30;99.90;;;;;;5041206;28;20024;-66
2023/11/04 09:04:13;;;;;;;0.20;0.20;;;9.30;99.90;;;;;;5035433;28;20102;-66
2023/11/04 09:06:39;;;;;;;1.23;0.45;;;9.30;99.90;;;;;;5034312;28;20048;-66
2023/11/04 09:09:08;;;;;;;0.73;0.35;;;9.30;99.90;;;;;;5037132;28;20029;-67
2023/11/04 09:11:35;;;;;;;0.20;0.20;;;9.40;99.90;;;;;;5038286;28;20461;-67
2023/11/04 09:14:04;;;;;;;0.88;0.60;;;9.40;99.90;;;;;;5040716;28;20456;-66
2023/11/04 09:16:34;;;;;;;0.20;0.20;;;9.50;99.90;;;;;;5039455;28;20186;-66
2023/11/04 09:19:00;;;;;;;0.63;0.40;;;9.50;99.90;;;;;;5033103;28;20084;-66
2023/11/04 09:21:26;;;;;;;2.17;0.30;;;9.50;99.90;;;;;;5034413;28;20106;-66
2023/11/04 09:23:52;;;;;;;0.20;0.17;;;9.50;99.90;;;;;;5038278;28;20041;-66
2023/11/04 09:26:19;;;;;;;1.13;0.43;;;9.60;99.90;;;;;;5038304;28;20044;-66
2023/11/04 09:28:44;;;;;;;0.60;0.25;;;9.70;99.90;;;;;;5035680;28;20049;-67
2023/11/04 09:31:10;;;;;;;0.15;0.13;;;9.80;99.90;;;;;;5035927;28;20041;-66
2023/11/04 09:33:36;;;;;;;0.30;0.13;;;10.00;99.90;;;;;;5036550;28;20045;-67
2023/11/04 09:36:03;;;;;;;0.10;0.10;;;10.10;99.90;;;;;;5038307;28;20045;-66
2023/11/04 09:38:29;;;;;;;1.77;0.20;;;10.40;99.90;;;;;;5063470;28;20045;-66
2023/11/04 09:40:55;;;;;;;2.25;0.30;;;10.60;99.90;;;;;;5034658;28;20052;-66
2023/11/04 09:43:22;;;;;;;1.80;0.10;;;10.70;99.90;;;;;;5031741;28;20059;-66
2023/11/04 09:45:48;;;;;;;1.27;0.20;;;10.80;99.90;;;;;;5023757;28;20490;-68
2023/11/04 09:48:14;;;;;;;1.52;0.40;;;10.90;99.90;;;;;;5024370;28;20429;-67
2023/11/04 09:50:39;;;;;;;0.20;0.20;;;10.80;99.90;;;;;;5033929;28;20044;-67
2023/11/04 09:53:13;;;;;;;1.65;0.13;;;10.70;99.90;;;;;;5027840;28;20045;-67
2023/11/04 09:55:40;;;;;;;0.20;0.20;;;10.70;99.90;;;;;;5034420;28;20057;-67
2023/11/04 09:58:06;;;;;;;0.10;0.10;;;10.60;99.90;;;;;;5033753;28;20083;-67
2023/11/04 10:00:35;;;;;;;0.10;0.10;;;10.50;99.90;;;;;;5039085;28;20501;-67
2023/11/04 10:03:01;;;;;;;2.63;0.60;;;10.50;99.90;;;;;;5032014;28;20067;-68
2023/11/04 10:05:28;;;;;;;0.43;0.10;;;10.40;99.90;;;;;;5030392;28;20494;-66
2023/11/04 10:07:56;;;;;;;0.10;0.10;;;10.40;99.90;;;;;;5029777;28;20065;-66
2023/11/04 10:10:21;;;;;;;0.35;0.20;;;10.50;99.90;;;;;;5031697;28;20045;-66
2023/11/04 10:12:47;;;;;;;1.75;0.35;;;10.50;99.90;;;;;;5033839;28;20567;-67
2023/11/04 10:15:13;;;;;;;1.30;0.40;;;10.40;99.90;;;;;;5030978;28;20037;-67
2023/11/04 10:17:39;;;;;;;0.82;0.30;;;10.30;99.90;;;;;;5035183;28;20781;-66
2023/11/04 10:20:11;;;;;;;0.47;0.30;;;10.30;99.90;;;;;;5029071;28;20048;-67
2023/11/04 10:22:39;;;;;;;0.30;0.15;;;10.30;99.90;;;;;;5034128;28;20175;-66
2023/11/04 10:25:07;;;;;;;1.55;0.28;;;10.40;99.90;;;;;;5029944;28;20041;-66
2023/11/04 10:27:34;;;;;;;0.98;0.22;;;10.40;99.90;;;;;;5066939;28;20041;-66
2023/11/04 10:30:00;;;;;;;0.43;0.20;;;10.50;99.90;;;;;;5030602;28;20037;-66
2023/11/04 10:32:36;;;;;;;0.63;0.10;;;10.90;99.90;;;;;;5023607;28;20062;-66
2023/11/04 10:35:11;;;;;;;0.20;0.10;;;11.10;99.90;;;;;;5032627;28;20045;-66
2023/11/04 10:37:37;;;;;;;0.05;0.05;;;11.20;99.90;;;;;;5035286;28;20045;-66
2023/11/04 10:40:05;;;;;;;0.47;0.13;;;11.10;99.90;;;;;;5037442;28;20187;-66
2023/11/04 10:42:32;;;;;;;0.45;0.10;;;11.10;99.90;;;;;;5031932;28;20053;-67
2023/11/04 10:45:02;;;;;;;3.15;0.20;;;11.10;99.90;;;;;;5003932;28;20119;-66
2023/11/04 10:47:47;;;;;;;0.03;0.03;;;11.20;99.90;;;;;;5040780;28;20525;-66
2023/11/04 10:50:15;;;;;;;0.82;0.28;;;11.20;99.90;;;;;;5033517;28;20084;-66
2023/11/04 10:52:50;;;;;;;0.10;0.10;;;11.30;99.90;;;;;;5038193;28;20481;-66
2023/11/04 10:55:21;;;;;;;0.25;0.22;;;11.50;99.90;;;;;;5065754;28;20045;-66
2023/11/04 10:57:56;;;;;;;0.60;0.30;;;11.60;99.90;;;;;;5036074;28;20341;-66
2023/11/04 11:00:25;;;;;;;0.10;0.10;;;11.50;99.90;;;;;;5035445;28;20049;-66
2023/11/04 11:02:52;;;;;;;0.17;0.03;;;11.60;99.90;;;;;;5068623;28;20045;-67
2023/11/04 11:05:22;;;;;;;0.03;0.00;;;11.40;99.90;;;;;;5030963;28;20108;-67
2023/11/04 11:07:49;;;;;;;0.85;0.30;;;11.30;99.90;;;;;;5040193;28;20041;-67
2023/11/04 11:10:22;;;;;;;2.80;0.28;;;11.30;99.90;;;;;;5043905;28;20041;-67
2023/11/04 11:13:17;;;;;;;1.60;0.20;;;11.10;99.90;;;;;;5034931;28;20052;-67
2023/11/04 11:15:43;;;;;;;0.98;0.00;;;11.10;99.90;;;;;;5026924;28;20115;-66
2023/11/04 11:18:11;;;;;;;0.00;0.00;;;11.10;99.90;;;;;;5041449;28;20052;-66
2023/11/04 11:20:37;;;;;;;0.00;0.00;;;11.10;99.90;;;;;;5040146;28;20041;-67
2023/11/04 11:23:05;;;;;;;0.08;0.00;;;11.00;99.90;;;;;;5035769;28;20049;-66
2023/11/04 11:25:32;;;;;;;0.32;0.00;;;11.00;99.90;;;;;;5036428;28;20061;-67
2023/11/04 11:27:59;;;;;;;0.00;0.00;;;11.00;99.90;;;;;;5040037;28;20044;-67
2023/11/04 11:30:38;;;;;;;1.35;0.10;;;11.00;99.90;;;;;;5042458;28;20559;-67
2023/11/04 11:33:08;;;;;;;1.10;0.20;;;10.90;99.90;;;;;;5037232;28;20033;-67
2023/11/04 11:36:02;;;;;;;0.22;0.03;;;11.00;99.90;;;;;;5036965;28;20053;-67
2023/11/04 11:38:30;;;;;;;0.00;0.00;;;11.00;99.90;;;;;;5038943;28;20072;-67
2023/11/04 11:41:05;;;;;;;0.50;0.05;;;11.10;99.90;;;;;;5035173;28;20131;-67
2023/11/04 11:43:31;;;;;;;0.20;0.10;;;11.20;99.90;;;;;;5067209;28;20049;-66
2023/11/04 11:45:58;;;;;;;0.35;0.17;;;11.40;99.90;;;;;;5031637;28;20468;-67
2023/11/04 11:48:24;;;;;;;2.97;0.28;;;11.40;99.90;;;;;;5039155;28;20323;-66
2023/11/04 11:50:50;;;;;;;0.00;0.00;;;11.40;99.90;;;;;;5032231;28;20045;-67
2023/11/04 11:53:17;;;;;;;1.17;0.20;;;11.30;99.90;;;;;;5033512;28;20111;-68
2023/11/04 11:55:58;;;;;;;0.13;0.00;;;11.30;99.90;;;;;;5072062;28;20107;-68
2023/11/04 11:58:25;;;;;;;0.30;0.10;;;11.20;99.90;;;;;;5041922;28;20037;-68
2023/11/04 12:00:51;;;;;;;1.35;0.17;;;11.20;99.90;;;;;;5032030;28;20041;-68
2023/11/04 12:03:17;;;;;;;0.35;0.22;;;11.30;99.90;;;;;;5043094;28;20048;-68
2023/11/04 12:05:44;;;;;;;0.17;0.10;;;11.30;99.90;;;;;;5040825;28;20053;-67
2023/11/04 12:08:10;;;;;;;0.08;0.00;;;11.40;99.90;;;;;;5070216;28;20516;-68
2023/11/04 12:10:37;;;;;;;0.10;0.03;;;11.50;99.90;;;;;;5035941;28;20043;-67
2023/11/04 12:13:03;;;;;;;1.45;0.43;;;11.40;99.90;;;;;;5037035;28;20044;-68
2023/11/04 12:15:29;;;;;;;0.10;0.08;;;11.40;99.90;;;;;;5036810;28;20523;-67
2023/11/04 12:18:02;;;;;;;0.30;0.10;;;11.20;99.90;;;;;;5035110;28;20033;-67
2023/11/04 12:20:29;;;;;;;0.08;0.08;;;11.20;99.90;;;;;;5034544;28;20041;-68
2023/11/04 12:23:05;;;;;;;0.00;0.00;;;11.20;99.90;;;;;;5034865;28;20100;-67
2023/11/04 12:25:31;;;;;;;0.08;0.05;;;11.10;99.90;;;;;;5036144;28;20319;-68
2023/11/04 12:28:01;;;;;;;1.55;0.47;;;11.10;99.90;;;;;;5045017;28;20045;-67
2023/11/04 12:30:28;;;;;;;0.35;0.20;;;11.10;99.90;;;;;;5035113;28;20045;-67
2023/11/04 12:32:56;;;;;;;0.00;0.00;;;11.10;99.90;;;;;;5038321;28;20037;-67
2023/11/04 12:35:25;;;;;;;0.20;0.20;;;11.10;99.90;;;;;;5032021;28;20052;-67
2023/11/04 12:37:52;;;;;;;0.38;0.17;;;11.10;99.90;;;;;;5034951;28;20080;-68
2023/11/04 12:40:19;;;;;;;1.02;0.03;;;11.10;99.90;;;;;;5065369;28;20451;-65
2023/11/04 12:42:45;;;;;;;0.38;0.20;;;11.00;99.90;;;;;;5039964;28;20136;-68
2023/11/04 12:45:12;;;;;;;0.17;0.17;;;11.10;99.90;;;;;;5037755;28;20091;-67
2023/11/04 12:47:38;;;;;;;0.00;0.00;;;11.10;99.90;;;;;;5031558;28;20509;-67
2023/11/04 12:50:05;;;;;;;0.20;0.10;;;11.10;99.90;;;;;;5032448;28;20033;-68
2023/11/04 12:52:31;;;;;;;0.13;0.13;;;11.10;99.90;;;;;;5040889;28;20109;-67